Time,TemperatureF,DewpointF,PressureIn,WindDirection,WindDirectionDegrees,WindSpeedMPH,WindSpeedGustMPH,Humidity,HourlyPrecipIn,Conditions,Clouds,dailyrainin,SoftwareType,DateUTC
2013-01-30 00:08:00,34.2,33.0,30.14,SW,216,0.0,1.0,95,0.01,,,0.00,weatherlink.com 1.10,2013-01-30 05:08:00,
2013-01-30 00:23:00,34.3,33.0,30.15,SW,217,0.0,0.0,95,0.02,,,0.01,weatherlink.com 1.10,2013-01-30 05:23:00,
2013-01-30 00:38:00,34.4,33.0,30.14,SW,217,0.0,0.0,95,0.02,,,0.01,weatherlink.com 1.10,2013-01-30 05:38:00,
2013-01-30 00:53:00,34.3,33.0,30.13,SW,216,0.0,1.0,95,0.02,,,0.02,weatherlink.com 1.10,2013-01-30 05:53:00,
2013-01-30 01:08:00,34.4,33.0,30.13,SE,146,0.0,1.0,96,0.02,,,0.02,weatherlink.com 1.10,2013-01-30 06:08:00,
2013-01-30 01:23:00,34.8,34.0,30.13,SW,221,0.0,1.0,96,0.02,,,0.03,weatherlink.com 1.10,2013-01-30 06:23:00,
2013-01-30 01:38:00,35.1,34.0,30.12,East,96,0.0,2.0,96,0.03,,,0.04,weatherlink.com 1.10,2013-01-30 06:38:00,
2013-01-30 01:53:00,35.2,34.0,30.12,East,96,0.0,1.0,96,0.03,,,0.05,weatherlink.com 1.10,2013-01-30 06:53:00,
2013-01-30 02:08:00,35.3,34.0,30.11,SE,144,0.0,1.0,96,0.04,,,0.06,weatherlink.com 1.10,2013-01-30 07:08:00,
2013-01-30 02:23:00,35.4,34.0,30.11,SSE,157,0.0,1.0,96,0.03,,,0.06,weatherlink.com 1.10,2013-01-30 07:23:00,
2013-01-30 02:38:00,35.7,35.0,30.09,SSE,165,0.0,2.0,96,0.03,,,0.07,weatherlink.com 1.10,2013-01-30 07:38:00,
2013-01-30 02:53:00,35.4,34.0,30.07,SSE,165,0.0,1.0,96,0.02,,,0.07,weatherlink.com 1.10,2013-01-30 07:53:00,
2013-01-30 03:08:00,35.7,35.0,30.07,SSE,152,0.0,3.0,96,0.02,,,0.08,weatherlink.com 1.10,2013-01-30 08:08:00,
2013-01-30 03:23:00,35.8,35.0,30.06,SSE,152,0.0,1.0,96,0.03,,,0.09,weatherlink.com 1.10,2013-01-30 08:23:00,
2013-01-30 03:38:00,35.9,35.0,30.05,SSE,162,2.0,2.0,96,0.02,,,0.09,weatherlink.com 1.10,2013-01-30 08:38:00,
2013-01-30 03:53:00,36.6,36.0,30.04,SE,134,3.0,4.0,97,0.03,,,0.10,weatherlink.com 1.10,2013-01-30 08:53:00,
2013-01-30 04:12:00,36.9,36.0,30.03,SSE,157,1.0,6.0,96,0.02,,,0.11,weatherlink.com 1.10,2013-01-30 09:12:00,
2013-01-30 04:23:00,37.1,36.0,30.03,SSE,158,0.0,4.0,96,0.02,,,0.11,weatherlink.com 1.10,2013-01-30 09:23:00,
2013-01-30 04:39:00,37.0,36.0,30.03,SSW,208,1.0,4.0,96,0.03,,,0.12,weatherlink.com 1.10,2013-01-30 09:39:00,
2013-01-30 04:53:00,37.1,36.0,30.02,SE,133,0.0,3.0,96,0.02,,,0.12,weatherlink.com 1.10,2013-01-30 09:53:00,
2013-01-30 05:09:00,37.1,36.0,30.00,SSE,155,1.0,2.0,96,0.03,,,0.13,weatherlink.com 1.10,2013-01-30 10:09:00,
2013-01-30 05:24:00,37.2,37.0,29.99,South,173,1.0,3.0,97,0.02,,,0.13,weatherlink.com 1.10,2013-01-30 10:24:00,
2013-01-30 05:39:00,37.3,37.0,29.99,South,187,2.0,3.0,97,0.02,,,0.14,weatherlink.com 1.10,2013-01-30 10:39:00,
2013-01-30 05:54:00,37.4,37.0,30.00,ESE,121,3.0,3.0,97,0.02,,,0.14,weatherlink.com 1.10,2013-01-30 10:54:00,
2013-01-30 06:09:00,37.6,37.0,29.99,South,179,0.0,1.0,97,0.01,,,0.14,weatherlink.com 1.10,2013-01-30 11:09:00,
2013-01-30 06:24:00,37.9,37.0,29.99,South,181,1.0,3.0,97,0.02,,,0.15,weatherlink.com 1.10,2013-01-30 11:24:00,
2013-01-30 06:39:00,37.7,37.0,29.97,SE,143,0.0,1.0,96,0.01,,,0.15,weatherlink.com 1.10,2013-01-30 11:39:00,
2013-01-30 06:54:00,37.8,37.0,29.97,SE,143,0.0,1.0,97,0.01,,,0.15,weatherlink.com 1.10,2013-01-30 11:54:00,
2013-01-30 07:09:00,37.9,37.0,29.95,SE,146,0.0,4.0,97,0.01,,,0.15,weatherlink.com 1.10,2013-01-30 12:09:00,
2013-01-30 07:24:00,39.1,38.0,29.93,SSE,168,2.0,3.0,97,0.01,,,0.16,weatherlink.com 1.10,2013-01-30 12:24:00,
2013-01-30 07:39:00,40.4,40.0,29.93,SSE,162,0.0,2.0,97,0.01,,,0.16,weatherlink.com 1.10,2013-01-30 12:39:00,
2013-01-30 07:54:00,41.3,41.0,29.92,South,169,0.0,4.0,97,0.01,,,0.16,weatherlink.com 1.10,2013-01-30 12:54:00,
2013-01-30 08:09:00,42.8,42.0,29.91,SE,146,4.0,6.0,98,0.01,,,0.16,weatherlink.com 1.10,2013-01-30 13:09:00,
2013-01-30 08:24:00,44.3,44.0,29.90,ESE,120,2.0,10.0,98,0.00,,,0.16,weatherlink.com 1.10,2013-01-30 13:24:00,
2013-01-30 08:39:00,45.2,45.0,29.90,SW,227,3.0,9.0,98,0.00,,,0.16,weatherlink.com 1.10,2013-01-30 13:39:00,
2013-01-30 08:54:00,46.3,46.0,29.89,SW,214,2.0,10.0,97,0.00,,,0.16,weatherlink.com 1.10,2013-01-30 13:54:00,
2013-01-30 09:09:00,47.1,46.0,29.88,South,173,6.0,8.0,97,0.00,,,0.16,weatherlink.com 1.10,2013-01-30 14:09:00,
2013-01-30 09:25:00,47.7,47.0,29.87,WNW,301,5.0,11.0,96,0.00,,,0.16,weatherlink.com 1.10,2013-01-30 14:25:00,
2013-01-30 09:39:00,48.3,47.0,29.86,SSE,148,2.0,8.0,96,0.00,,,0.16,weatherlink.com 1.10,2013-01-30 14:39:00,
2013-01-30 09:55:00,49.4,49.0,29.85,SW,219,3.0,11.0,97,0.00,,,0.16,weatherlink.com 1.10,2013-01-30 14:55:00,
2013-01-30 10:10:00,50.7,50.0,29.84,SSE,165,4.0,7.0,97,0.00,,,0.16,weatherlink.com 1.10,2013-01-30 15:10:00,
2013-01-30 10:25:00,52.1,51.0,29.84,SW,230,2.0,11.0,96,0.00,,,0.16,weatherlink.com 1.10,2013-01-30 15:25:00,
2013-01-30 10:40:00,53.1,52.0,29.83,SW,219,7.0,11.0,95,0.00,,,0.16,weatherlink.com 1.10,2013-01-30 15:40:00,
2013-01-30 10:55:00,53.6,52.0,29.81,SSW,207,2.0,13.0,95,0.00,,,0.16,weatherlink.com 1.10,2013-01-30 15:55:00,
2013-01-30 11:10:00,54.0,52.0,29.80,SSW,194,5.0,9.0,94,0.00,,,0.16,weatherlink.com 1.10,2013-01-30 16:10:00,
2013-01-30 11:25:00,54.3,53.0,29.78,SSW,206,2.0,10.0,94,0.00,,,0.16,weatherlink.com 1.10,2013-01-30 16:25:00,
2013-01-30 11:40:00,54.8,53.0,29.76,SSE,160,7.0,9.0,93,0.00,,,0.16,weatherlink.com 1.10,2013-01-30 16:40:00,
2013-01-30 11:55:00,55.2,53.0,29.76,South,174,4.0,8.0,93,0.00,,,0.16,weatherlink.com 1.10,2013-01-30 16:55:00,
2013-01-30 12:10:00,55.4,54.0,29.75,SSW,205,3.0,9.0,93,0.00,,,0.16,weatherlink.com 1.10,2013-01-30 17:10:00,
2013-01-30 12:25:00,55.7,54.0,29.73,ESE,112,4.0,9.0,93,0.00,,,0.16,weatherlink.com 1.10,2013-01-30 17:25:00,
2013-01-30 12:40:00,55.9,54.0,29.72,WSW,239,2.0,11.0,92,0.00,,,0.16,weatherlink.com 1.10,2013-01-30 17:40:00,
2013-01-30 12:55:00,56.2,54.0,29.71,West,276,1.0,11.0,92,0.00,,,0.16,weatherlink.com 1.10,2013-01-30 17:55:00,
2013-01-30 13:10:00,56.4,54.0,29.70,SSE,147,3.0,7.0,92,0.00,,,0.16,weatherlink.com 1.10,2013-01-30 18:10:00,
2013-01-30 13:25:00,56.8,54.0,29.67,SSE,159,5.0,7.0,91,0.00,,,0.16,weatherlink.com 1.10,2013-01-30 18:25:00,
2013-01-30 13:40:00,57.3,55.0,29.67,WSW,258,4.0,10.0,90,0.00,,,0.16,weatherlink.com 1.10,2013-01-30 18:40:00,
2013-01-30 13:56:00,57.7,55.0,29.66,WNW,301,3.0,8.0,90,0.00,,,0.16,weatherlink.com 1.10,2013-01-30 18:56:00,
2013-01-30 14:10:00,58.1,55.0,29.65,ESE,110,5.0,10.0,89,0.00,,,0.16,weatherlink.com 1.10,2013-01-30 19:10:00,
2013-01-30 14:25:00,58.5,55.0,29.64,SE,129,2.0,9.0,89,0.00,,,0.16,weatherlink.com 1.10,2013-01-30 19:25:00,
2013-01-30 14:40:00,59.3,56.0,29.63,SSE,150,3.0,9.0,88,0.00,,,0.16,weatherlink.com 1.10,2013-01-30 19:40:00,
2013-01-30 14:56:00,60.8,57.0,29.63,SW,229,3.0,10.0,86,0.00,,,0.16,weatherlink.com 1.10,2013-01-30 19:56:00,
2013-01-30 15:11:00,62.0,57.0,29.62,West,269,3.0,17.0,84,0.00,,,0.16,weatherlink.com 1.10,2013-01-30 20:11:00,
2013-01-30 15:26:00,62.6,57.0,29.62,SW,233,5.0,15.0,83,0.00,,,0.16,weatherlink.com 1.10,2013-01-30 20:26:00,
2013-01-30 15:41:00,62.1,57.0,29.62,WSW,254,8.0,17.0,83,0.00,,,0.16,weatherlink.com 1.10,2013-01-30 20:41:00,
2013-01-30 15:56:00,61.6,57.0,29.61,WNW,285,6.0,16.0,84,0.00,,,0.16,weatherlink.com 1.10,2013-01-30 20:56:00,
2013-01-30 16:11:00,61.5,57.0,29.60,West,266,6.0,15.0,84,0.00,,,0.16,weatherlink.com 1.10,2013-01-30 21:11:00,
2013-01-30 16:26:00,61.5,57.0,29.61,SW,215,5.0,12.0,85,0.00,,,0.16,weatherlink.com 1.10,2013-01-30 21:26:00,
2013-01-30 16:41:00,61.4,57.0,29.61,SW,217,8.0,13.0,85,0.00,,,0.16,weatherlink.com 1.10,2013-01-30 21:41:00,
2013-01-30 16:56:00,61.2,57.0,29.61,WSW,247,9.0,15.0,85,0.00,,,0.16,weatherlink.com 1.10,2013-01-30 21:56:00,
2013-01-30 17:11:00,61.0,57.0,29.61,West,259,6.0,10.0,85,0.00,,,0.16,weatherlink.com 1.10,2013-01-30 22:11:00,
2013-01-30 17:26:00,60.8,56.0,29.62,SSW,208,12.0,17.0,85,0.00,,,0.16,weatherlink.com 1.10,2013-01-30 22:26:00,
2013-01-30 17:41:00,60.6,57.0,29.61,SSE,158,4.0,16.0,87,0.00,,,0.16,weatherlink.com 1.10,2013-01-30 22:41:00,
2013-01-30 17:56:00,60.6,57.0,29.60,WSW,245,4.0,14.0,87,0.00,,,0.16,weatherlink.com 1.10,2013-01-30 22:56:00,
2013-01-30 18:11:00,60.7,57.0,29.59,South,179,4.0,12.0,86,0.00,,,0.16,weatherlink.com 1.10,2013-01-30 23:11:00,
2013-01-30 18:26:00,60.9,57.0,29.59,West,269,10.0,14.0,86,0.00,,,0.16,weatherlink.com 1.10,2013-01-30 23:26:00,
2013-01-30 18:41:00,61.2,57.0,29.59,SSE,165,4.0,13.0,86,0.00,,,0.16,weatherlink.com 1.10,2013-01-30 23:41:00,
2013-01-30 18:56:00,61.5,57.0,29.58,SSE,161,2.0,13.0,85,0.00,,,0.16,weatherlink.com 1.10,2013-01-30 23:56:00,
2013-01-30 19:11:00,61.6,57.0,29.57,West,269,4.0,13.0,85,0.00,,,0.16,weatherlink.com 1.10,2013-01-31 00:11:00,
2013-01-30 19:26:00,61.6,57.0,29.57,South,176,3.0,13.0,85,0.00,,,0.16,weatherlink.com 1.10,2013-01-31 00:26:00,
2013-01-30 19:41:00,61.3,57.0,29.57,WSW,258,4.0,12.0,86,0.00,,,0.16,weatherlink.com 1.10,2013-01-31 00:41:00,
2013-01-30 19:56:00,61.2,57.0,29.56,WSW,243,7.0,17.0,87,0.00,,,0.16,weatherlink.com 1.10,2013-01-31 00:56:00,
2013-01-30 20:11:00,61.0,57.0,29.56,SE,146,3.0,13.0,87,0.00,,,0.16,weatherlink.com 1.10,2013-01-31 01:11:00,
2013-01-30 20:26:00,60.8,57.0,29.55,South,191,5.0,13.0,88,0.00,,,0.16,weatherlink.com 1.10,2013-01-31 01:26:00,
2013-01-30 20:41:00,60.3,57.0,29.55,SSW,197,6.0,10.0,90,0.00,,,0.16,weatherlink.com 1.10,2013-01-31 01:41:00,
2013-01-30 20:56:00,60.1,58.0,29.55,ESE,112,6.0,11.0,91,0.01,,,0.17,weatherlink.com 1.10,2013-01-31 01:56:00,
2013-01-30 21:11:00,59.7,57.0,29.55,SSE,155,3.0,8.0,92,0.01,,,0.17,weatherlink.com 1.10,2013-01-31 02:11:00,
2013-01-30 21:26:00,59.6,57.0,29.54,SSE,156,6.0,10.0,92,0.02,,,0.18,weatherlink.com 1.10,2013-01-31 02:26:00,
2013-01-30 21:42:00,59.5,57.0,29.53,South,181,7.0,14.0,92,0.03,,,0.19,weatherlink.com 1.10,2013-01-31 02:42:00,
2013-01-30 21:56:00,59.7,57.0,29.53,South,187,7.0,18.0,92,0.02,,,0.19,weatherlink.com 1.10,2013-01-31 02:56:00,
2013-01-30 22:11:00,59.6,57.0,29.52,ESE,114,4.0,13.0,91,0.02,,,0.19,weatherlink.com 1.10,2013-01-31 03:11:00,
2013-01-30 22:26:00,59.6,57.0,29.52,SW,231,2.0,13.0,91,0.01,,,0.19,weatherlink.com 1.10,2013-01-31 03:26:00,
2013-01-30 22:41:00,59.5,57.0,29.51,WSW,257,10.0,15.0,92,0.00,,,0.19,weatherlink.com 1.10,2013-01-31 03:41:00,
2013-01-30 22:56:00,59.1,57.0,29.50,West,274,7.0,16.0,92,0.00,,,0.19,weatherlink.com 1.10,2013-01-31 03:56:00,
2013-01-30 23:14:00,58.8,57.0,29.49,NE,53,4.0,10.0,93,0.01,,,0.20,weatherlink.com 1.10,2013-01-31 04:14:00,
2013-01-30 23:27:00,58.9,57.0,29.47,NW,326,6.0,14.0,93,0.01,,,0.20,weatherlink.com 1.10,2013-01-31 04:27:00,
2013-01-30 23:42:00,58.8,57.0,29.47,West,267,3.0,14.0,93,0.01,,,0.20,weatherlink.com 1.10,2013-01-31 04:42:00,
2013-01-30 23:56:00,59.1,57.0,29.46,SSE,167,6.0,10.0,92,0.00,,,0.20,weatherlink.com 1.10,2013-01-31 04:56:00,